Time;durP1;ratioP1;P1;durP2;ratioP2;P2;SDS_P1;SDS_P2;PMS_P1;PMS_P2;Temp;Humidity;BMP_temperature;BMP_pressure;BME280_temperature;BME280_humidity;BME280_pressure;Samples;Min_cycle;Max_cycle;Signal;HPM_P1;HPM_P2
2022/06/14 00:02:51;;;;;;;2.40;1.50;;;13.30;99.90;;;;;;5030365;28;20253;-66
2022/06/14 00:05:17;;;;;;;3.00;1.27;;;13.30;99.90;;;;;;5030425;28;20407;-66
2022/06/14 00:07:42;;;;;;;0.80;0.80;;;13.10;99.90;;;;;;5031729;28;20168;-66
2022/06/14 00:10:08;;;;;;;1.43;1.20;;;13.10;99.90;;;;;;5033137;28;20163;-66
2022/06/14 00:12:34;;;;;;;3.10;1.33;;;13.00;99.90;;;;;;5035513;28;20187;-66
2022/06/14 00:15:00;;;;;;;1.60;1.20;;;12.90;99.90;;;;;;5035283;28;20803;-66
2022/06/14 00:17:25;;;;;;;0.80;0.80;;;12.90;99.90;;;;;;5035691;28;20182;-67
2022/06/14 00:19:51;;;;;;;2.23;0.90;;;12.90;99.90;;;;;;5035271;28;20160;-66
2022/06/14 00:22:17;;;;;;;1.80;1.10;;;12.80;99.90;;;;;;5035188;28;20252;-66
2022/06/14 00:24:42;;;;;;;2.00;1.67;;;12.80;99.90;;;;;;5034660;28;20194;-66
2022/06/14 00:27:08;;;;;;;1.50;1.40;;;12.80;99.90;;;;;;5035222;28;20259;-66
2022/06/14 00:29:33;;;;;;;2.37;1.43;;;12.80;99.90;;;;;;5034745;28;20335;-66
2022/06/14 00:31:59;;;;;;;1.37;1.20;;;12.80;99.90;;;;;;5035217;28;20171;-66
2022/06/14 00:34:25;;;;;;;1.30;0.90;;;12.70;99.90;;;;;;5034755;28;20217;-66
2022/06/14 00:36:54;;;;;;;1.10;1.00;;;12.70;99.90;;;;;;5035070;28;20174;-66
2022/06/14 00:39:20;;;;;;;2.60;1.40;;;12.70;99.90;;;;;;5035162;28;20665;-67
2022/06/14 00:41:50;;;;;;;1.70;1.13;;;12.70;99.90;;;;;;5034935;28;20453;-66
2022/06/14 00:44:26;;;;;;;1.77;1.00;;;12.60;99.90;;;;;;5034938;28;20431;-66
2022/06/14 00:47:12;;;;;;;2.90;1.20;;;12.60;99.90;;;;;;5034580;28;20394;-66
2022/06/14 00:49:50;;;;;;;1.93;1.00;;;12.50;99.90;;;;;;5034728;28;20398;-66
2022/06/14 00:52:23;;;;;;;4.20;1.10;;;12.50;99.90;;;;;;5033266;28;20476;-66
2022/06/14 00:54:54;;;;;;;3.73;1.40;;;12.40;99.90;;;;;;5034753;28;20430;-66
2022/06/14 00:57:25;;;;;;;1.33;1.10;;;12.30;99.90;;;;;;5035230;28;20433;-66
2022/06/14 00:59:59;;;;;;;1.03;1.00;;;12.30;99.90;;;;;;5034957;28;20410;-66
2022/06/14 01:02:30;;;;;;;1.07;1.00;;;12.30;99.90;;;;;;5035323;28;20655;-66
2022/06/14 01:04:58;;;;;;;1.10;1.00;;;12.20;99.90;;;;;;5034752;28;20468;-67
2022/06/14 01:07:40;;;;;;;1.10;1.10;;;12.20;99.90;;;;;;5034658;28;20448;-66
2022/06/14 01:10:16;;;;;;;2.30;1.40;;;12.20;99.90;;;;;;5034563;28;20778;-66
2022/06/14 01:12:46;;;;;;;2.50;1.00;;;12.10;99.90;;;;;;5034655;28;21084;-66
2022/06/14 01:15:23;;;;;;;1.50;1.00;;;12.10;99.90;;;;;;5034439;28;20398;-66
2022/06/14 01:17:54;;;;;;;1.57;0.97;;;12.00;99.90;;;;;;5034902;28;20399;-66
2022/06/14 01:20:21;;;;;;;1.30;1.20;;;12.00;99.90;;;;;;5034365;28;20956;-67
2022/06/14 01:22:49;;;;;;;1.20;1.10;;;11.90;99.90;;;;;;5034290;28;20408;-67
2022/06/14 01:25:15;;;;;;;1.80;0.83;;;11.90;99.90;;;;;;5034511;28;20414;-67
2022/06/14 01:27:42;;;;;;;5.10;1.30;;;11.80;99.90;;;;;;5034295;28;20410;-66
2022/06/14 01:30:10;;;;;;;1.10;1.00;;;11.80;99.90;;;;;;5034378;28;20414;-66
2022/06/14 01:32:50;;;;;;;2.13;1.07;;;11.80;99.90;;;;;;5034312;28;20900;-65
2022/06/14 01:35:21;;;;;;;4.23;1.57;;;11.80;99.90;;;;;;5034086;28;20418;-65
2022/06/14 01:37:51;;;;;;;1.90;1.00;;;11.70;99.90;;;;;;5031371;28;20532;-66
2022/06/14 01:40:18;;;;;;;1.90;1.80;;;11.60;99.90;;;;;;5033763;28;20402;-66
2022/06/14 01:43:15;;;;;;;1.43;1.30;;;11.50;99.90;;;;;;5033855;28;20414;-66
2022/06/14 01:45:48;;;;;;;0.93;0.93;;;11.60;99.90;;;;;;4992859;28;20418;-65
2022/06/14 01:48:50;;;;;;;1.73;1.00;;;11.60;99.90;;;;;;5034080;28;20841;-65
2022/06/14 01:51:52;;;;;;;2.60;1.40;;;11.50;99.90;;;;;;5033575;28;20749;-66
2022/06/14 01:54:40;;;;;;;3.70;1.00;;;11.50;99.90;;;;;;5033372;28;20426;-67
2022/06/14 01:57:14;;;;;;;5.90;1.70;;;11.40;99.90;;;;;;5033527;28;20406;-66
2022/06/14 02:00:03;;;;;;;2.20;1.00;;;11.40;99.90;;;;;;5033638;28;20466;-66
2022/06/14 02:02:39;;;;;;;1.97;1.10;;;11.40;99.90;;;;;;5022722;28;21003;-67
2022/06/14 02:05:32;;;;;;;5.37;1.30;;;11.40;99.90;;;;;;5033180;28;20517;-66
2022/06/14 02:08:14;;;;;;;0.90;0.90;;;11.40;99.90;;;;;;5032323;28;20414;-67
2022/06/14 02:10:53;;;;;;;1.10;1.00;;;11.40;99.90;;;;;;5032336;28;20411;-67
2022/06/14 02:13:46;;;;;;;1.27;1.10;;;11.30;99.90;;;;;;5031969;28;20528;-66
2022/06/14 02:16:27;;;;;;;1.53;1.43;;;11.30;99.90;;;;;;5032090;28;20398;-66
2022/06/14 02:19:13;;;;;;;2.37;1.20;;;11.20;99.90;;;;;;5032176;28;20412;-66
2022/06/14 02:21:57;;;;;;;3.17;1.30;;;11.20;99.90;;;;;;5032009;28;20453;-66
2022/06/14 02:24:47;;;;;;;3.80;1.47;;;11.20;99.90;;;;;;5031940;28;20419;-66
2022/06/14 02:27:17;;;;;;;1.20;1.10;;;11.10;99.90;;;;;;5031858;28;20418;-66
2022/06/14 02:30:00;;;;;;;2.37;1.27;;;11.10;99.90;;;;;;5032029;28;20442;-66
2022/06/14 02:32:31;;;;;;;2.80;1.37;;;11.10;99.90;;;;;;5031250;28;20412;-66
2022/06/14 02:35:09;;;;;;;2.00;1.47;;;11.00;99.90;;;;;;5031381;28;20446;-66
2022/06/14 02:37:45;;;;;;;1.60;1.30;;;11.00;99.90;;;;;;5031841;28;20413;-65
2022/06/14 02:40:18;;;;;;;5.40;1.37;;;11.00;99.90;;;;;;5031816;28;20480;-65
2022/06/14 02:43:06;;;;;;;2.87;1.77;;;10.90;99.90;;;;;;5031785;28;20453;-65
2022/06/14 02:45:58;;;;;;;2.10;1.00;;;10.90;99.90;;;;;;5031559;28;20402;-65
2022/06/14 02:48:55;;;;;;;3.80;1.30;;;10.90;99.90;;;;;;5031541;28;20402;-65
2022/06/14 02:51:37;;;;;;;2.73;1.40;;;10.90;99.90;;;;;;5000648;28;20471;-66
2022/06/14 02:54:27;;;;;;;1.50;1.30;;;10.90;99.90;;;;;;5031561;28;20525;-66
2022/06/14 02:57:04;;;;;;;2.30;1.23;;;10.90;99.90;;;;;;5031387;28;20399;-66
2022/06/14 02:59:44;;;;;;;1.23;1.13;;;10.90;99.90;;;;;;5031481;28;20439;-66
2022/06/14 03:02:27;;;;;;;1.63;1.10;;;10.90;99.90;;;;;;5031513;28;20538;-65
2022/06/14 03:05:02;;;;;;;4.53;1.27;;;10.90;99.90;;;;;;5031026;28;20457;-66
2022/06/14 03:07:41;;;;;;;4.80;1.90;;;10.90;99.90;;;;;;5031594;28;20422;-66
2022/06/14 03:10:07;;;;;;;1.27;1.17;;;10.90;99.90;;;;;;5031451;28;20456;-66
2022/06/14 03:12:46;;;;;;;2.83;1.40;;;10.90;99.90;;;;;;5031225;28;20434;-66
2022/06/14 03:15:44;;;;;;;1.43;1.33;;;10.90;99.90;;;;;;5031343;28;20437;-67
2022/06/14 03:18:50;;;;;;;1.50;1.30;;;11.00;99.90;;;;;;4999114;28;20457;-66
2022/06/14 03:21:34;;;;;;;2.80;1.43;;;11.00;99.90;;;;;;5031335;28;20450;-66
2022/06/14 03:24:14;;;;;;;1.70;1.60;;;11.10;99.90;;;;;;5031261;28;20436;-65
2022/06/14 03:27:09;;;;;;;1.60;1.30;;;11.10;99.90;;;;;;5031801;28;20728;-65
2022/06/14 03:30:00;;;;;;;1.70;1.27;;;11.10;99.90;;;;;;5031120;28;20833;-65
2022/06/14 03:32:34;;;;;;;1.33;1.23;;;11.10;99.90;;;;;;5031188;28;20410;-65
2022/06/14 03:35:07;;;;;;;1.10;0.97;;;11.10;99.90;;;;;;5030648;28;20451;-66
2022/06/14 03:37:33;;;;;;;5.10;1.50;;;11.20;99.90;;;;;;5031180;28;20849;-65
2022/06/14 03:40:08;;;;;;;2.90;1.30;;;11.20;99.90;;;;;;5031219;28;20433;-66
2022/06/14 03:42:35;;;;;;;4.80;1.60;;;11.20;99.90;;;;;;5030701;28;20465;-66
2022/06/14 03:45:02;;;;;;;1.73;1.50;;;11.20;99.90;;;;;;5034086;28;20876;-66
2022/06/14 03:47:29;;;;;;;3.03;1.57;;;11.30;99.90;;;;;;5035095;28;20406;-66
2022/06/14 03:50:12;;;;;;;1.13;1.10;;;11.30;99.90;;;;;;5034984;28;20804;-65
2022/06/14 03:53:18;;;;;;;5.23;2.97;;;11.40;99.90;;;;;;5034852;28;20395;-65
2022/06/14 03:56:17;;;;;;;2.17;1.90;;;11.40;99.90;;;;;;5035050;28;20402;-66
2022/06/14 03:59:20;;;;;;;3.20;1.20;;;11.40;99.90;;;;;;5008248;28;20418;-66
2022/06/14 04:02:05;;;;;;;1.87;1.50;;;11.60;99.90;;;;;;5011495;28;20472;-66
2022/06/14 04:04:44;;;;;;;1.83;1.37;;;11.50;99.90;;;;;;5034614;28;20483;-66
2022/06/14 04:07:25;;;;;;;1.60;1.20;;;11.60;99.90;;;;;;5035287;28;20463;-66
2022/06/14 04:10:15;;;;;;;6.03;1.40;;;11.70;99.90;;;;;;5035300;28;20437;-66
2022/06/14 04:13:00;;;;;;;1.53;1.43;;;11.70;99.90;;;;;;5034658;28;20508;-66
2022/06/14 04:15:50;;;;;;;1.67;1.40;;;12.00;99.90;;;;;;5034530;28;20405;-66
2022/06/14 04:18:40;;;;;;;1.17;1.07;;;12.20;99.90;;;;;;5033195;28;20421;-66
2022/06/14 04:21:05;;;;;;;2.10;1.10;;;12.30;99.90;;;;;;5034645;28;20445;-65
2022/06/14 04:23:43;;;;;;;8.70;1.73;;;12.50;99.90;;;;;;5034240;28;20508;-66
2022/06/14 04:26:17;;;;;;;5.23;1.57;;;12.80;99.90;;;;;;5034083;28;20175;-66
2022/06/14 04:29:06;;;;;;;1.37;0.80;;;12.70;99.90;;;;;;5034180;28;20956;-66
2022/06/14 04:31:44;;;;;;;3.13;1.50;;;12.90;99.90;;;;;;5034142;28;20502;-66
2022/06/14 04:34:25;;;;;;;3.10;1.40;;;13.20;99.90;;;;;;5034271;28;20897;-66
2022/06/14 04:37:06;;;;;;;1.67;1.33;;;13.70;99.90;;;;;;5034008;28;20445;-65
2022/06/14 04:39:40;;;;;;;2.20;1.23;;;13.70;99.90;;;;;;5034234;28;20414;-66
2022/06/14 04:42:38;;;;;;;5.30;1.30;;;14.20;99.90;;;;;;5033741;28;20496;-65
2022/06/14 04:45:09;;;;;;;2.70;1.10;;;14.20;99.90;;;;;;4963564;28;20433;-66
2022/06/14 04:47:43;;;;;;;6.43;1.10;;;13.30;99.90;;;;;;5033569;28;20398;-65
2022/06/14 04:50:17;;;;;;;1.80;1.00;;;13.90;99.90;;;;;;5034008;28;20410;-66
2022/06/14 04:52:49;;;;;;;2.40;1.50;;;14.00;99.90;;;;;;5033802;28;20911;-65
2022/06/14 04:55:18;;;;;;;1.97;1.40;;;13.90;99.90;;;;;;5032829;28;20836;-66
2022/06/14 04:57:48;;;;;;;4.13;1.13;;;13.80;99.90;;;;;;5033636;28;20433;-66
2022/06/14 05:00:27;;;;;;;2.77;1.30;;;14.10;99.90;;;;;;5033763;28;20418;-66
2022/06/14 05:03:23;;;;;;;10.10;1.70;;;13.40;99.90;;;;;;5033794;28;20479;-66
2022/06/14 05:06:04;;;;;;;2.03;1.03;;;13.70;99.90;;;;;;5019134;28;20473;-66
2022/06/14 05:08:43;;;;;;;3.17;1.17;;;13.90;99.90;;;;;;5033695;28;20391;-65
2022/06/14 05:11:19;;;;;;;3.47;1.20;;;13.70;99.90;;;;;;5033616;28;20413;-65
2022/06/14 05:14:06;;;;;;;1.10;0.90;;;14.50;99.90;;;;;;5033338;28;20430;-65
2022/06/14 05:16:36;;;;;;;2.50;1.10;;;14.30;99.90;;;;;;5033470;28;20903;-65
2022/06/14 05:19:20;;;;;;;2.43;1.30;;;14.10;99.90;;;;;;5034418;28;20762;-65
2022/06/14 05:21:49;;;;;;;1.57;1.07;;;14.00;99.90;;;;;;5033793;28;20604;-65
2022/06/14 05:24:16;;;;;;;1.77;1.30;;;14.10;99.90;;;;;;5033274;28;20793;-67
2022/06/14 05:27:12;;;;;;;3.50;1.27;;;13.70;99.90;;;;;;5032954;28;20431;-65
2022/06/14 05:30:14;;;;;;;4.00;1.00;;;14.30;99.90;;;;;;5033360;28;20403;-65
2022/06/14 05:32:52;;;;;;;1.10;1.00;;;15.40;99.90;;;;;;5032984;28;20409;-65
2022/06/14 05:38:02;;;;;;;4.60;1.50;;;15.90;99.90;;;;;;5031960;28;20468;-69
2022/06/14 05:40:45;;;;;;;2.30;1.43;;;15.90;99.90;;;;;;5034954;28;20400;-68
2022/06/14 05:43:26;;;;;;;1.00;0.90;;;15.00;99.90;;;;;;5035514;28;20465;-69
2022/06/14 05:45:57;;;;;;;1.13;1.03;;;14.70;99.90;;;;;;5034141;28;20423;-68
2022/06/14 05:48:41;;;;;;;2.07;1.30;;;15.40;99.90;;;;;;5034195;28;20404;-68
2022/06/14 05:51:10;;;;;;;2.17;1.03;;;15.80;99.90;;;;;;5033902;28;20466;-68
2022/06/14 05:53:58;;;;;;;1.60;1.10;;;15.90;99.90;;;;;;5033581;28;20405;-68
2022/06/14 05:56:33;;;;;;;1.53;1.30;;;16.20;99.90;;;;;;5015929;28;20521;-68
2022/06/14 05:59:36;;;;;;;2.20;1.47;;;15.70;99.90;;;;;;5014256;28;20429;-68
2022/06/14 06:02:32;;;;;;;1.10;1.10;;;15.40;99.90;;;;;;4960096;28;20449;-67
2022/06/14 06:05:29;;;;;;;2.87;1.33;;;15.50;99.90;;;;;;5030188;28;20973;-68
2022/06/14 06:08:15;;;;;;;1.43;1.33;;;15.70;99.90;;;;;;5028887;28;20775;-68
2022/06/14 06:10:48;;;;;;;2.83;1.53;;;16.40;99.90;;;;;;5033323;28;20840;-68
2022/06/14 06:13:24;;;;;;;1.97;1.50;;;17.60;99.90;;;;;;5014542;28;20412;-68
2022/06/14 06:15:54;;;;;;;2.87;1.70;;;17.50;99.90;;;;;;5033317;28;20425;-68
2022/06/14 06:18:24;;;;;;;2.83;1.30;;;17.00;99.90;;;;;;5033731;28;20473;-68
2022/06/14 06:20:55;;;;;;;2.37;1.10;;;17.40;99.90;;;;;;5020448;28;20478;-68
2022/06/14 06:23:42;;;;;;;2.07;1.57;;;17.70;99.90;;;;;;5015767;28;20991;-68
2022/06/14 06:26:10;;;;;;;4.50;1.90;;;18.40;99.90;;;;;;5033034;28;20435;-68
2022/06/14 06:28:42;;;;;;;2.70;1.30;;;19.20;99.90;;;;;;5033407;28;20397;-68
2022/06/14 06:31:33;;;;;;;2.97;1.27;;;19.40;99.90;;;;;;5034003;28;20494;-69
2022/06/14 06:34:02;;;;;;;1.60;0.93;;;18.30;99.90;;;;;;5034134;28;20406;-69
2022/06/14 06:36:46;;;;;;;2.00;1.20;;;18.10;99.90;;;;;;5033481;28;20449;-68
2022/06/14 06:39:24;;;;;;;12.67;8.47;;;18.40;99.90;;;;;;5029701;28;20442;-69
2022/06/14 06:41:55;;;;;;;1.70;1.20;;;18.70;99.90;;;;;;5029792;28;20461;-68
2022/06/14 06:44:35;;;;;;;2.80;1.37;;;18.30;99.90;;;;;;5033747;28;20470;-68
2022/06/14 06:47:17;;;;;;;1.37;1.10;;;16.90;99.90;;;;;;5033205;28;21006;-68
2022/06/14 06:49:58;;;;;;;3.83;1.30;;;17.60;99.90;;;;;;5032278;28;20409;-69
2022/06/14 06:52:49;;;;;;;1.80;0.87;;;18.40;99.90;;;;;;5032699;28;20418;-68
2022/06/14 06:55:24;;;;;;;1.70;0.80;;;18.60;99.90;;;;;;5014723;28;20413;-68
2022/06/14 06:57:52;;;;;;;1.20;1.00;;;17.60;99.90;;;;;;5032652;28;20802;-68
2022/06/14 07:00:19;;;;;;;1.30;1.00;;;18.20;99.90;;;;;;5033306;28;20995;-69
2022/06/14 07:02:50;;;;;;;3.27;1.20;;;18.10;99.90;;;;;;5033818;28;20559;-69
2022/06/14 07:05:17;;;;;;;3.20;1.50;;;18.10;99.90;;;;;;5035986;28;20442;-68
2022/06/14 07:07:58;;;;;;;4.10;1.40;;;18.20;99.90;;;;;;5031638;28;20405;-68
2022/06/14 07:10:38;;;;;;;3.70;1.20;;;17.40;99.90;;;;;;5032533;28;20403;-68
2022/06/14 07:13:19;;;;;;;2.43;1.10;;;17.20;99.90;;;;;;5029387;28;20405;-68
2022/06/14 07:16:06;;;;;;;2.40;0.97;;;16.80;99.90;;;;;;5031759;28;20506;-68
2022/06/14 07:18:50;;;;;;;2.60;1.10;;;17.00;99.90;;;;;;5032514;28;20409;-68
2022/06/14 07:21:25;;;;;;;4.83;1.20;;;16.00;99.90;;;;;;5032736;28;20503;-69
2022/06/14 07:24:08;;;;;;;2.20;1.40;;;16.20;99.90;;;;;;5033989;28;20834;-68
2022/06/14 07:26:49;;;;;;;5.30;1.13;;;16.00;99.90;;;;;;5029014;28;20516;-69
2022/06/14 07:29:28;;;;;;;2.00;1.10;;;16.40;99.90;;;;;;5015790;28;20484;-70
2022/06/14 07:32:17;;;;;;;2.00;1.03;;;16.60;99.90;;;;;;5025227;28;20467;-68
2022/06/14 07:34:44;;;;;;;2.30;0.80;;;17.10;99.90;;;;;;5032823;28;20496;-69
2022/06/14 07:37:24;;;;;;;1.53;1.43;;;16.80;99.90;;;;;;5033087;28;20449;-68
2022/06/14 07:40:05;;;;;;;1.57;1.33;;;16.80;99.90;;;;;;5032770;28;20775;-69
2022/06/14 07:42:43;;;;;;;0.90;0.80;;;17.20;99.90;;;;;;5028246;28;20453;-68
2022/06/14 07:45:28;;;;;;;1.70;1.20;;;17.00;99.90;;;;;;5032523;28;20439;-69
2022/06/14 07:48:04;;;;;;;2.40;1.00;;;16.50;99.90;;;;;;5032230;28;20400;-69
2022/06/14 07:50:45;;;;;;;1.63;1.03;;;16.50;99.90;;;;;;5032094;28;20417;-68
2022/06/14 07:53:28;;;;;;;2.37;1.50;;;16.90;99.90;;;;;;5033401;28;20415;-68
2022/06/14 07:56:00;;;;;;;1.50;1.00;;;16.90;99.90;;;;;;5032540;28;20463;-68
2022/06/14 07:58:45;;;;;;;6.47;1.87;;;16.60;99.90;;;;;;5033923;28;20401;-68
2022/06/14 08:01:19;;;;;;;2.77;1.27;;;17.30;99.90;;;;;;5032090;28;20485;-68
2022/06/14 08:03:59;;;;;;;4.63;1.40;;;16.60;99.90;;;;;;5032400;28;20432;-67
2022/06/14 08:06:41;;;;;;;6.20;1.30;;;16.60;99.90;;;;;;5031753;28;20827;-68
2022/06/14 08:09:36;;;;;;;5.27;1.20;;;16.50;99.90;;;;;;5051179;28;20449;-68
2022/06/14 08:12:10;;;;;;;1.37;1.00;;;16.40;99.90;;;;;;5035704;28;20419;-68
2022/06/14 08:14:46;;;;;;;1.70;1.20;;;16.80;99.90;;;;;;5032348;28;20887;-68
2022/06/14 08:17:24;;;;;;;2.30;1.10;;;16.90;99.90;;;;;;5032124;28;20838;-68
2022/06/14 08:19:57;;;;;;;1.10;1.00;;;16.90;99.90;;;;;;5031771;28;20993;-69
2022/06/14 08:22:31;;;;;;;2.23;1.13;;;17.30;99.90;;;;;;5032300;28;20460;-69
2022/06/14 08:25:03;;;;;;;1.83;1.40;;;17.10;99.90;;;;;;5032778;28;20750;-69
2022/06/14 08:27:34;;;;;;;6.83;1.00;;;16.80;99.90;;;;;;5033649;28;20421;-68
2022/06/14 08:30:27;;;;;;;3.07;0.97;;;17.00;99.90;;;;;;5033305;28;20405;-68
2022/06/14 08:33:01;;;;;;;2.90;1.00;;;16.80;99.90;;;;;;5037213;28;20413;-69
2022/06/14 08:35:40;;;;;;;1.67;1.00;;;17.50;99.90;;;;;;5036705;28;20408;-69
2022/06/14 08:38:19;;;;;;;1.93;0.90;;;17.60;99.90;;;;;;5036986;28;20405;-70
2022/06/14 08:41:07;;;;;;;1.00;0.90;;;17.30;99.90;;;;;;5035842;28;20446;-69
2022/06/14 08:43:43;;;;;;;2.80;1.40;;;17.00;99.90;;;;;;5036550;28;20494;-69
2022/06/14 08:46:23;;;;;;;2.20;1.57;;;17.50;99.90;;;;;;5036829;28;20495;-69
2022/06/14 08:49:16;;;;;;;1.40;0.80;;;18.10;99.90;;;;;;5037093;28;20407;-68
2022/06/14 08:51:59;;;;;;;1.77;1.00;;;18.10;99.90;;;;;;5020700;28;20438;-68
2022/06/14 08:54:56;;;;;;;1.10;1.00;;;17.60;99.90;;;;;;5016016;28;20513;-68
2022/06/14 08:57:43;;;;;;;2.20;1.10;;;17.80;98.10;;;;;;5015271;28;20447;-69
2022/06/14 09:00:31;;;;;;;3.83;0.93;;;18.70;97.70;;;;;;5015086;28;20431;-68
2022/06/14 09:03:24;;;;;;;1.40;0.83;;;18.70;96.50;;;;;;5015222;28;20416;-69
2022/06/14 09:06:02;;;;;;;1.27;0.97;;;20.10;94.60;;;;;;5014895;28;20429;-69
2022/06/14 09:09:16;;;;;;;2.07;1.00;;;20.90;93.70;;;;;;5028302;28;20411;-68
2022/06/14 09:12:02;;;;;;;1.50;0.70;;;21.50;90.80;;;;;;5034601;28;20755;-69
2022/06/14 09:14:46;;;;;;;2.30;0.80;;;21.90;89.60;;;;;;5034531;28;20449;-68
2022/06/14 09:17:46;;;;;;;1.00;0.70;;;21.40;89.70;;;;;;5034168;28;20440;-68
2022/06/14 09:20:35;;;;;;;3.33;1.67;;;20.50;89.20;;;;;;5034268;28;20981;-68
2022/06/14 09:23:19;;;;;;;1.83;0.90;;;20.70;89.10;;;;;;5034296;28;20421;-68
2022/06/14 09:26:21;;;;;;;1.83;1.00;;;19.40;90.50;;;;;;5034053;28;20508;-68
2022/06/14 09:29:14;;;;;;;1.37;1.07;;;19.40;90.70;;;;;;5034186;28;20766;-69
2022/06/14 09:31:46;;;;;;;1.30;1.00;;;19.60;90.40;;;;;;5034312;28;20409;-69
2022/06/14 09:34:42;;;;;;;1.70;1.10;;;18.80;91.10;;;;;;5034476;28;20401;-69
2022/06/14 09:37:39;;;;;;;2.47;1.20;;;19.50;90.50;;;;;;5034146;28;20451;-69
2022/06/14 09:40:25;;;;;;;2.73;0.90;;;19.70;90.60;;;;;;5034158;28;20394;-69
2022/06/14 09:43:37;;;;;;;2.27;1.07;;;19.80;90.20;;;;;;5033809;28;20894;-68
2022/06/14 09:46:09;;;;;;;2.13;0.90;;;19.00;90.60;;;;;;5033046;28;20437;-68
2022/06/14 09:48:59;;;;;;;1.10;0.83;;;18.80;91.60;;;;;;5016388;28;20410;-72
2022/06/14 09:51:53;;;;;;;1.10;0.90;;;19.50;91.00;;;;;;5014017;28;20409;-69
2022/06/14 09:54:33;;;;;;;1.67;1.00;;;19.20;91.40;;;;;;5014310;28;20414;-69
2022/06/14 09:57:30;;;;;;;1.37;1.27;;;18.60;92.50;;;;;;5014093;28;20456;-69
2022/06/14 10:00:27;;;;;;;2.70;1.00;;;18.30;92.70;;;;;;5014004;28;20969;-68
2022/06/14 10:02:59;;;;;;;1.00;0.80;;;17.70;93.90;;;;;;5014287;28;20512;-68
2022/06/14 10:05:42;;;;;;;1.67;1.00;;;18.00;93.70;;;;;;5013574;28;20414;-68
2022/06/14 10:08:29;;;;;;;1.43;1.23;;;17.80;93.90;;;;;;5024443;28;20418;-69
2022/06/14 10:11:17;;;;;;;1.63;0.87;;;18.00;94.40;;;;;;5034323;28;20411;-69
2022/06/14 10:14:11;;;;;;;1.80;0.90;;;18.60;94.00;;;;;;5034012;28;20756;-70
2022/06/14 10:17:07;;;;;;;3.50;1.30;;;18.10;94.30;;;;;;5004226;28;20439;-69
2022/06/14 10:19:58;;;;;;;1.50;1.10;;;18.10;94.10;;;;;;5033523;28;20454;-68
2022/06/14 10:22:48;;;;;;;1.27;0.70;;;18.40;93.50;;;;;;4997214;28;20465;-68
2022/06/14 10:28:42;;;;;;;0.90;0.83;;;18.80;94.00;;;;;;5025707;28;20842;-68
2022/06/14 10:31:34;;;;;;;1.67;0.87;;;19.70;91.80;;;;;;5033458;28;20402;-68
2022/06/14 10:34:08;;;;;;;2.73;1.20;;;19.20;91.80;;;;;;5033963;28;20968;-68
2022/06/14 10:36:43;;;;;;;1.67;1.17;;;19.80;92.10;;;;;;5033379;28;20452;-69
2022/06/14 10:39:27;;;;;;;1.67;1.00;;;20.20;92.30;;;;;;5033975;28;20396;-69
2022/06/14 10:42:19;;;;;;;4.83;0.90;;;19.40;91.50;;;;;;5033402;28;20449;-69
2022/06/14 10:45:05;;;;;;;0.93;0.80;;;19.50;92.40;;;;;;5033259;28;20482;-68
2022/06/14 10:47:45;;;;;;;1.20;1.10;;;19.90;91.60;;;;;;5033373;28;20430;-68
2022/06/14 10:50:37;;;;;;;1.13;1.03;;;19.10;92.50;;;;;;5033440;28;20858;-68
2022/06/14 10:53:20;;;;;;;1.13;1.03;;;19.00;92.40;;;;;;5032760;28;20456;-68
2022/06/14 10:55:59;;;;;;;1.77;0.90;;;18.10;92.80;;;;;;5033465;28;21056;-68
2022/06/14 10:58:48;;;;;;;1.30;0.93;;;18.90;92.90;;;;;;5033918;28;20402;-70
2022/06/14 11:01:37;;;;;;;1.30;1.03;;;19.50;91.90;;;;;;5034022;28;20521;-70
2022/06/14 11:04:26;;;;;;;1.70;1.10;;;19.90;91.20;;;;;;5033804;28;20392;-68
2022/06/14 11:07:03;;;;;;;1.70;1.60;;;20.30;91.20;;;;;;5033503;28;20426;-69
2022/06/14 11:09:38;;;;;;;3.43;1.20;;;20.70;89.90;;;;;;5036941;28;20403;-69
2022/06/14 11:12:32;;;;;;;3.43;0.87;;;19.40;90.70;;;;;;5036354;28;20771;-70
2022/06/14 11:15:04;;;;;;;1.07;0.97;;;20.10;90.30;;;;;;5033638;28;20475;-69
2022/06/14 11:17:41;;;;;;;1.03;0.93;;;19.30;90.40;;;;;;5019023;28;20446;-69
2022/06/14 11:20:23;;;;;;;1.90;0.80;;;19.70;90.60;;;;;;5016351;28;20406;-69
2022/06/14 11:23:06;;;;;;;4.70;1.43;;;19.80;90.90;;;;;;5033528;28;20451;-69
2022/06/14 11:25:55;;;;;;;3.77;1.10;;;19.20;91.70;;;;;;5021644;28;20455;-69
2022/06/14 11:28:39;;;;;;;3.43;0.97;;;19.60;91.40;;;;;;5001188;28;20855;-69
2022/06/14 11:31:27;;;;;;;2.77;1.23;;;19.90;91.40;;;;;;5022719;28;20420;-69
2022/06/14 11:33:55;;;;;;;1.57;1.27;;;20.30;90.90;;;;;;5032890;28;20411;-69
2022/06/14 11:36:30;;;;;;;1.10;1.00;;;20.50;90.70;;;;;;5033434;28;20596;-68
2022/06/14 11:39:17;;;;;;;1.13;0.90;;;20.60;90.30;;;;;;5035300;28;20411;-68
2022/06/14 11:41:48;;;;;;;7.67;1.10;;;20.20;90.20;;;;;;5037077;28;20959;-68
2022/06/14 11:44:41;;;;;;;1.30;0.90;;;20.70;89.30;;;;;;5036575;28;20404;-68
2022/06/14 11:47:57;;;;;;;1.93;0.97;;;20.00;88.50;;;;;;5036100;28;20763;-68
2022/06/14 11:50:48;;;;;;;1.00;0.90;;;19.80;88.80;;;;;;5018999;28;20770;-70
2022/06/14 11:53:23;;;;;;;3.20;0.93;;;20.30;87.40;;;;;;5036392;28;20458;-69
2022/06/14 11:55:56;;;;;;;1.10;0.90;;;19.90;87.30;;;;;;5036315;28;20432;-69
2022/06/14 11:58:37;;;;;;;6.60;1.10;;;19.60;88.90;;;;;;5037257;28;20423;-69
2022/06/14 12:01:50;;;;;;;2.50;1.30;;;19.50;89.50;;;;;;5036310;28;20450;-69
2022/06/14 12:04:43;;;;;;;0.83;0.80;;;19.80;89.50;;;;;;5009838;28;20426;-68
2022/06/14 12:07:27;;;;;;;1.97;1.10;;;19.20;90.00;;;;;;5036537;28;20443;-68
2022/06/14 12:10:26;;;;;;;1.10;1.00;;;19.40;90.20;;;;;;5039271;28;20890;-68
2022/06/14 12:13:16;;;;;;;1.73;1.07;;;19.10;90.20;;;;;;5039604;28;20456;-69
2022/06/14 12:15:58;;;;;;;1.77;1.03;;;19.10;90.70;;;;;;5039486;28;20426;-68
2022/06/14 12:18:27;;;;;;;3.70;2.03;;;19.40;90.40;;;;;;5060792;28;20392;-70
2022/06/14 12:20:56;;;;;;;2.10;1.40;;;19.80;90.10;;;;;;5059675;28;20441;-69
2022/06/14 12:23:37;;;;;;;1.47;1.10;;;20.10;89.60;;;;;;5047416;28;20489;-69
2022/06/14 12:26:34;;;;;;;2.10;1.20;;;20.10;88.90;;;;;;5040544;28;20669;-69
2022/06/14 12:29:27;;;;;;;1.37;0.90;;;20.00;88.90;;;;;;5040382;28;20418;-68
2022/06/14 12:32:20;;;;;;;1.93;1.10;;;19.80;88.80;;;;;;5040290;28;20402;-69
2022/06/14 12:34:58;;;;;;;1.53;1.10;;;20.10;87.30;;;;;;5040507;28;20423;-69
2022/06/14 12:37:43;;;;;;;1.47;1.20;;;20.50;86.40;;;;;;5038483;28;20472;-69
2022/06/14 12:40:11;;;;;;;2.10;0.90;;;20.40;85.60;;;;;;5037808;28;20396;-68
2022/06/14 12:42:39;;;;;;;1.80;0.93;;;19.70;86.60;;;;;;5037876;28;20542;-70
2022/06/14 12:45:27;;;;;;;1.70;1.07;;;19.90;87.90;;;;;;5038596;28;20400;-69
2022/06/14 12:48:01;;;;;;;1.37;0.90;;;19.90;86.40;;;;;;5038183;28;20495;-69
2022/06/14 12:50:35;;;;;;;2.17;1.13;;;20.00;86.40;;;;;;5036941;28;20415;-70
2022/06/14 12:53:19;;;;;;;4.30;1.17;;;20.10;86.20;;;;;;5036576;28;20444;-69
2022/06/14 12:55:55;;;;;;;2.60;1.30;;;20.00;87.30;;;;;;5037370;28;20463;-70
2022/06/14 12:58:34;;;;;;;1.10;0.83;;;20.10;85.50;;;;;;5036465;28;20411;-68
2022/06/14 13:01:15;;;;;;;2.00;0.90;;;20.00;85.10;;;;;;5036104;28;20549;-68
2022/06/14 13:03:58;;;;;;;1.00;0.80;;;20.30;84.70;;;;;;5016236;28;20887;-68
2022/06/14 13:06:43;;;;;;;1.00;0.90;;;19.80;85.50;;;;;;5015870;28;20535;-68
2022/06/14 13:09:32;;;;;;;1.47;0.90;;;20.00;85.50;;;;;;5035237;28;20487;-68
2022/06/14 13:12:24;;;;;;;1.57;1.00;;;20.70;84.50;;;;;;5035889;28;20495;-68
2022/06/14 13:15:21;;;;;;;0.80;0.70;;;20.90;83.60;;;;;;5035978;28;20418;-68
2022/06/14 13:18:11;;;;;;;0.97;0.70;;;21.30;82.50;;;;;;5034539;28;20409;-69
2022/06/14 13:21:10;;;;;;;0.80;0.80;;;21.00;82.90;;;;;;5036427;28;20400;-69
2022/06/14 13:23:42;;;;;;;2.93;1.90;;;20.10;83.70;;;;;;5025083;28;20781;-69
2022/06/14 13:26:10;;;;;;;1.37;0.70;;;20.30;84.90;;;;;;5036387;28;20470;-68
2022/06/14 13:29:10;;;;;;;0.93;0.80;;;21.00;84.30;;;;;;5036405;28;20412;-68
2022/06/14 13:31:38;;;;;;;1.63;0.83;;;21.10;81.40;;;;;;5036805;28;20442;-68
2022/06/14 13:34:25;;;;;;;1.40;0.90;;;20.50;82.50;;;;;;5036176;28;20444;-68
2022/06/14 13:37:29;;;;;;;3.43;1.00;;;20.90;83.10;;;;;;5035005;28;20530;-69
2022/06/14 13:40:14;;;;;;;1.53;0.97;;;21.40;82.20;;;;;;5035419;28;20444;-69
2022/06/14 13:42:56;;;;;;;1.50;1.07;;;21.30;81.40;;;;;;5028794;28;20446;-69
2022/06/14 13:45:40;;;;;;;0.90;0.80;;;21.50;81.50;;;;;;5034898;28;20405;-69
2022/06/14 13:48:09;;;;;;;1.00;0.73;;;21.50;80.40;;;;;;5035722;28;20464;-69
2022/06/14 13:50:51;;;;;;;1.53;0.70;;;21.00;80.30;;;;;;5035237;28;20530;-69
2022/06/14 13:53:32;;;;;;;2.13;0.83;;;20.50;81.20;;;;;;5035254;28;20776;-68
2022/06/14 13:56:10;;;;;;;1.10;0.90;;;20.40;81.60;;;;;;5035458;28;20508;-69
2022/06/14 13:58:44;;;;;;;1.87;0.90;;;20.40;83.80;;;;;;5037470;28;20409;-69
2022/06/14 14:01:20;;;;;;;2.03;1.20;;;20.80;82.50;;;;;;5036907;28;20438;-69
2022/06/14 14:04:05;;;;;;;1.77;0.87;;;20.80;82.10;;;;;;5037579;28;20485;-69
2022/06/14 14:06:47;;;;;;;1.07;0.97;;;20.60;81.80;;;;;;5035461;28;20784;-68